createdAt,value
2019-03-30T00:00:45.229Z,101779.55
2019-03-30T00:03:14.284Z,101773.05
2019-03-30T00:05:43.342Z,101775.91
2019-03-30T00:08:12.392Z,101769.98
2019-03-30T00:10:41.577Z,101761.36
2019-03-30T00:13:10.627Z,101761.43
2019-03-30T00:15:39.763Z,101764.56
2019-03-30T00:18:08.845Z,101759.98
2019-03-30T00:20:37.890Z,101753.42
2019-03-30T00:23:07.032Z,101759.86
2019-03-30T00:25:36.140Z,101760.22
2019-03-30T00:28:05.275Z,101761.38
2019-03-30T00:30:34.340Z,101759.20
2019-03-30T00:33:03.514Z,101754.22
2019-03-30T00:35:32.692Z,101757.15
2019-03-30T00:38:01.711Z,101750.59
2019-03-30T00:40:30.779Z,101755.41
2019-03-30T00:42:59.822Z,101745.89
2019-03-30T00:45:28.888Z,101751.87
2019-03-30T00:47:58.061Z,101744.45
2019-03-30T00:50:27.115Z,101743.78
2019-03-30T00:52:56.147Z,101742.39
2019-03-30T00:55:25.219Z,101740.05
2019-03-30T00:57:54.278Z,101738.56
2019-03-30T01:00:23.435Z,101737.17
2019-03-30T01:02:52.512Z,101729.88
2019-03-30T01:05:21.751Z,101731.91
2019-03-30T01:07:50.808Z,101729.07
2019-03-30T01:10:20.066Z,101725.11
2019-03-30T01:12:49.243Z,101722.69
2019-03-30T01:15:18.287Z,101724.27
2019-03-30T01:17:47.689Z,101722.10
2019-03-30T01:20:16.733Z,101714.99
2019-03-30T01:22:45.904Z,101713.38
2019-03-30T01:25:15.184Z,101716.14
2019-03-30T01:27:44.344Z,101714.19
2019-03-30T01:30:22.911Z,101712.27
2019-03-30T01:32:44.870Z,101715.23
2019-03-30T01:35:13.949Z,101702.50
2019-03-30T01:37:43.154Z,101705.16
2019-03-30T01:40:12.429Z,101705.89
2019-03-30T01:42:41.570Z,101708.35
2019-03-30T01:45:11.430Z,101698.93
2019-03-30T01:47:40.516Z,101693.05
2019-03-30T01:50:17.166Z,101693.82
2019-03-30T01:52:41.207Z,101693.05
2019-03-30T01:55:10.562Z,101698.59
2019-03-30T01:57:39.629Z,101694.13
2019-03-30T02:00:09.573Z,101686.09
2019-03-30T02:02:38.908Z,101683.16
2019-03-30T02:05:08.221Z,101681.94
2019-03-30T02:07:37.383Z,101685.75
2019-03-30T02:10:07.492Z,101680.33
2019-03-30T02:12:36.706Z,101675.52
2019-03-30T02:15:06.887Z,101677.14
2019-03-30T02:17:35.944Z,101678.86
2019-03-30T02:20:06.177Z,101671.38
2019-03-30T02:22:35.345Z,101667.30
2019-03-30T02:25:05.711Z,101668.75
2019-03-30T02:27:34.869Z,101662.18
2019-03-30T02:30:04.782Z,101663.98
2019-03-30T02:32:33.821Z,101660.30
2019-03-30T02:35:03.572Z,101660.11
2019-03-30T02:37:33.019Z,101659.30
2019-03-30T02:40:02.320Z,101657.49
2019-03-30T02:42:31.371Z,101650.64
2019-03-30T02:45:00.563Z,101645.43
2019-03-30T02:47:29.632Z,101648.16
2019-03-30T02:49:58.710Z,101640.01
2019-03-30T02:52:27.796Z,101649.89
2019-03-30T02:54:56.928Z,101641.77
2019-03-30T02:57:26.002Z,101636.59
2019-03-30T02:59:55.200Z,101639.66
2019-03-30T03:02:24.253Z,101638.11
2019-03-30T03:04:53.315Z,101632.11
2019-03-30T03:07:22.598Z,101631.50
2019-03-30T03:09:52.420Z,101633.42
2019-03-30T03:12:21.521Z,101634.27
2019-03-30T03:14:50.781Z,101635.58
2019-03-30T03:17:20.215Z,101632.73
2019-03-30T03:19:49.244Z,101631.66
2019-03-30T03:22:18.459Z,101624.44
2019-03-30T03:24:47.522Z,101627.67
2019-03-30T03:27:16.618Z,101624.33
2019-03-30T03:29:46.021Z,101620.41
2019-03-30T03:32:15.072Z,101627.48
2019-03-30T03:34:44.220Z,101618.02
2019-03-30T03:37:13.520Z,101616.03
2019-03-30T03:39:42.682Z,101617.65
2019-03-30T03:42:11.837Z,101612.95
2019-03-30T03:44:41.167Z,101612.55
2019-03-30T03:47:10.337Z,101608.20
2019-03-30T03:49:39.580Z,101601.32
2019-03-30T03:52:08.873Z,101600.89
2019-03-30T03:54:38.001Z,101602.41
2019-03-30T03:57:10.909Z,101605.36
2019-03-30T03:59:41.413Z,101606.20
2019-03-30T04:02:13.289Z,101605.48
2019-03-30T04:04:47.274Z,101598.70
2019-03-30T04:07:19.692Z,101600.61
2019-03-30T04:09:50.876Z,101594.04
2019-03-30T04:12:22.197Z,101593.05
2019-03-30T04:14:51.658Z,101590.31
2019-03-30T04:17:20.926Z,101587.27
2019-03-30T04:19:50.200Z,101587.62
2019-03-30T04:22:19.283Z,101581.95
2019-03-30T04:24:48.357Z,101578.87
2019-03-30T04:27:17.409Z,101576.00
2019-03-30T04:29:46.794Z,101577.74
2019-03-30T04:32:15.905Z,101575.72
2019-03-30T04:34:45.145Z,101577.31
2019-03-30T04:37:14.235Z,101573.66
2019-03-30T04:39:43.385Z,101571.88
2019-03-30T04:42:12.602Z,101570.66
2019-03-30T04:44:41.664Z,101571.45
2019-03-30T04:47:10.731Z,101569.44
2019-03-30T04:49:39.871Z,101571.56
2019-03-30T04:52:08.971Z,101566.88
2019-03-30T04:54:37.995Z,101568.38
2019-03-30T04:57:07.031Z,101569.55
2019-03-30T04:59:36.105Z,101563.62
2019-03-30T05:02:05.408Z,101565.00
2019-03-30T05:04:34.600Z,101564.88
2019-03-30T05:07:03.678Z,101567.88
2019-03-30T05:09:32.939Z,101567.88
2019-03-30T05:12:02.153Z,101559.05
2019-03-30T05:14:31.229Z,101561.07
2019-03-30T05:17:00.255Z,101560.14
2019-03-30T05:19:29.305Z,101561.61
2019-03-30T05:22:11.389Z,101560.24
2019-03-30T05:24:29.515Z,101559.26
2019-03-30T05:26:58.670Z,101560.66
2019-03-30T05:29:27.734Z,101550.56
2019-03-30T05:31:56.763Z,101551.61
2019-03-30T05:34:25.824Z,101549.30
2019-03-30T05:36:54.862Z,101545.99
2019-03-30T05:39:24.007Z,101551.11
2019-03-30T05:41:53.088Z,101543.23
2019-03-30T05:44:22.216Z,101543.45
2019-03-30T05:46:51.253Z,101549.80
2019-03-30T05:49:20.328Z,101552.34
2019-03-30T05:51:49.484Z,101544.99
2019-03-30T05:54:18.539Z,101551.70
2019-03-30T05:56:47.602Z,101542.85
2019-03-30T05:59:16.705Z,101544.66
2019-03-30T06:01:45.854Z,101538.91
2019-03-30T06:04:14.916Z,101542.09
2019-03-30T06:06:44.149Z,101539.33
2019-03-30T06:09:13.203Z,101535.44
2019-03-30T06:11:42.352Z,101544.36
2019-03-30T06:14:11.513Z,101535.27
2019-03-30T06:16:40.781Z,101530.70
2019-03-30T06:19:09.956Z,101528.34
2019-03-30T06:24:19.339Z,101534.77
2019-03-30T06:26:48.618Z,101530.75
2019-03-30T06:29:17.715Z,101522.34
2019-03-30T06:31:47.008Z,101519.64
2019-03-30T06:34:16.119Z,101523.84
2019-03-30T06:36:45.199Z,101522.28
2019-03-30T06:39:14.554Z,101515.02
2019-03-30T06:41:43.862Z,101521.77
2019-03-30T06:44:13.156Z,101522.66
2019-03-30T06:46:42.248Z,101524.98
2019-03-30T06:49:11.460Z,101518.27
2019-03-30T06:51:40.743Z,101509.05
2019-03-30T06:54:09.954Z,101510.22
2019-03-30T06:56:39.144Z,101510.55
2019-03-30T06:59:08.452Z,101520.79
2019-03-30T07:01:38.153Z,101507.80
2019-03-30T07:04:11.046Z,101505.79
2019-03-30T07:06:38.958Z,101495.80
2019-03-30T07:09:08.087Z,101504.23
2019-03-30T07:11:41.448Z,101499.69
2019-03-30T07:14:10.840Z,101497.20
2019-03-30T07:16:41.319Z,101492.33
2019-03-30T07:19:11.634Z,101483.30
2019-03-30T07:21:40.825Z,101479.59
2019-03-30T07:24:09.914Z,101478.16
2019-03-30T07:26:39.402Z,101471.62
2019-03-30T07:29:08.700Z,101490.64
2019-03-30T07:31:37.891Z,101485.44
2019-03-30T07:34:07.109Z,101475.62
2019-03-30T07:36:36.242Z,101476.33
2019-03-30T07:39:05.545Z,101471.30
2019-03-30T07:41:34.639Z,101473.32
2019-03-30T07:44:03.818Z,101488.53
2019-03-30T07:46:32.911Z,101479.89
2019-03-30T07:49:02.231Z,101483.95
2019-03-30T07:51:33.461Z,101488.61
2019-03-30T07:54:02.757Z,101493.34
2019-03-30T07:56:31.854Z,101483.50
2019-03-30T07:59:01.168Z,101486.96
2019-03-30T08:01:30.495Z,101487.09
2019-03-30T08:03:59.795Z,101492.06
2019-03-30T08:06:29.089Z,101483.96
2019-03-30T08:08:58.199Z,101483.96
2019-03-30T08:11:27.492Z,101488.96
2019-03-30T08:13:56.619Z,101484.27
2019-03-30T08:16:25.904Z,101485.61
2019-03-30T08:18:54.969Z,101485.61
2019-03-30T08:21:24.076Z,101480.86
2019-03-30T08:23:53.303Z,101482.84
2019-03-30T08:26:22.504Z,101474.48
2019-03-30T08:28:51.792Z,101476.77
2019-03-30T08:31:21.106Z,101476.83
2019-03-30T08:33:50.272Z,101476.97
2019-03-30T08:36:19.454Z,101472.64
2019-03-30T08:38:48.642Z,101466.63
2019-03-30T08:41:17.927Z,101474.95
2019-03-30T08:43:47.003Z,101476.41
2019-03-30T08:46:16.206Z,101477.33
2019-03-30T08:48:45.390Z,101475.64
2019-03-30T08:51:14.583Z,101484.03
2019-03-30T08:53:53.972Z,101473.52
2019-03-30T08:56:14.874Z,101469.86
2019-03-30T08:58:44.126Z,101472.75
2019-03-30T09:01:13.464Z,101469.87
2019-03-30T09:03:42.640Z,101469.66
2019-03-30T09:06:11.831Z,101458.02
2019-03-30T09:08:40.946Z,101458.16
2019-03-30T09:11:10.264Z,101459.50
2019-03-30T09:13:39.459Z,101457.44
2019-03-30T09:16:08.854Z,101454.70
2019-03-30T09:18:38.105Z,101452.00
2019-03-30T09:21:07.399Z,101453.26
2019-03-30T09:23:36.737Z,101448.33
2019-03-30T09:26:06.026Z,101448.25
2019-03-30T09:28:35.181Z,101447.43
2019-03-30T09:31:04.526Z,101462.05
2019-03-30T09:33:33.809Z,101448.80
2019-03-30T09:36:03.104Z,101460.81
2019-03-30T09:38:32.328Z,101451.34
2019-03-30T09:41:01.528Z,101447.26
2019-03-30T09:43:30.703Z,101447.62
2019-03-30T09:46:00.048Z,101445.22
2019-03-30T09:48:29.257Z,101431.66
2019-03-30T09:50:58.558Z,101428.66
2019-03-30T09:53:27.862Z,101435.92
2019-03-30T09:55:57.037Z,101436.81
2019-03-30T09:58:26.239Z,101435.61
2019-03-30T10:00:55.452Z,101429.88
2019-03-30T10:03:24.561Z,101423.34
2019-03-30T10:05:53.645Z,101436.00
2019-03-30T10:08:22.967Z,101432.08
2019-03-30T10:10:52.162Z,101423.45
2019-03-30T10:13:21.486Z,101414.68
2019-03-30T10:15:50.745Z,101412.38
2019-03-30T10:18:19.883Z,101408.35
2019-03-30T10:20:49.071Z,101413.04
2019-03-30T10:23:18.451Z,101418.51
2019-03-30T10:25:47.645Z,101419.49
2019-03-30T10:28:16.859Z,101419.45
2019-03-30T10:30:46.244Z,101422.45
2019-03-30T10:33:15.323Z,101411.44
2019-03-30T10:35:44.517Z,101419.38
2019-03-30T10:38:13.728Z,101412.16
2019-03-30T10:40:42.917Z,101411.59
2019-03-30T10:43:12.237Z,101410.45
2019-03-30T10:45:41.714Z,101405.42
2019-03-30T10:48:11.111Z,101404.26
2019-03-30T10:50:40.438Z,101403.52
2019-03-30T10:53:09.640Z,101397.03
2019-03-30T10:55:38.842Z,101394.78
2019-03-30T10:58:08.089Z,101390.73
2019-03-30T11:00:39.413Z,101396.72
2019-03-30T11:03:08.672Z,101389.19
2019-03-30T11:05:37.999Z,101396.97
2019-03-30T11:08:07.272Z,101397.88
2019-03-30T11:10:36.580Z,101385.56
2019-03-30T11:13:05.813Z,101390.17
2019-03-30T11:15:35.124Z,101383.80
2019-03-30T11:18:04.414Z,101395.38
2019-03-30T11:20:33.722Z,101385.74
2019-03-30T11:23:03.068Z,101378.67
2019-03-30T11:25:32.393Z,101379.97
2019-03-30T11:28:01.764Z,101382.74
2019-03-30T11:30:30.874Z,101368.10
2019-03-30T11:33:00.078Z,101374.41
2019-03-30T11:35:29.356Z,101371.65
2019-03-30T11:37:58.545Z,101375.09
2019-03-30T11:40:27.758Z,101373.39
2019-03-30T11:42:57.249Z,101366.02
2019-03-30T11:45:26.449Z,101359.19
2019-03-30T11:47:55.780Z,101358.75
2019-03-30T11:50:25.080Z,101356.14
2019-03-30T11:52:54.274Z,101358.60
2019-03-30T11:55:23.477Z,101349.17
2019-03-30T11:57:52.580Z,101347.61
2019-03-30T12:00:21.906Z,101349.69
2019-03-30T12:02:51.212Z,101358.50
2019-03-30T12:05:20.568Z,101345.17
2019-03-30T12:07:49.777Z,101349.23
2019-03-30T12:10:19.104Z,101341.52
2019-03-30T12:12:48.413Z,101351.61
2019-03-30T12:15:17.707Z,101341.36
2019-03-30T12:17:47.023Z,101344.48
2019-03-30T12:20:16.330Z,101342.06
2019-03-30T12:22:45.537Z,101335.46
2019-03-30T12:25:14.900Z,101334.95
2019-03-30T12:27:44.252Z,101320.82
2019-03-30T12:30:13.663Z,101324.05
2019-03-30T12:32:42.988Z,101315.61
2019-03-30T12:35:12.632Z,101318.06
2019-03-30T12:37:41.938Z,101313.75
2019-03-30T12:40:13.186Z,101309.93
2019-03-30T12:42:42.523Z,101313.99
2019-03-30T12:45:12.938Z,101308.30
2019-03-30T12:47:42.288Z,101305.23
2019-03-30T12:50:11.716Z,101301.04
2019-03-30T12:52:40.950Z,101296.70
2019-03-30T12:55:10.339Z,101290.67
2019-03-30T12:57:39.897Z,101286.79
2019-03-30T13:00:09.362Z,101293.98
2019-03-30T13:02:38.581Z,101297.20
2019-03-30T13:05:07.877Z,101297.34
2019-03-30T13:07:37.032Z,101297.94
2019-03-30T13:10:07.107Z,101298.41
2019-03-30T13:12:36.331Z,101290.53
2019-03-30T13:15:08.118Z,101290.59
2019-03-30T13:17:37.663Z,101290.59
2019-03-30T13:20:07.383Z,101286.20
2019-03-30T13:22:36.736Z,101286.20
2019-03-30T13:25:06.167Z,101288.23
2019-03-30T13:27:35.613Z,101269.70
2019-03-30T13:30:06.190Z,101279.32
2019-03-30T13:32:35.550Z,101284.47
2019-03-30T13:35:05.118Z,101280.47
2019-03-30T13:37:34.330Z,101276.12
2019-03-30T13:40:04.403Z,101267.84
2019-03-30T13:42:33.815Z,101264.13
2019-03-30T13:45:04.328Z,101260.34
2019-03-30T13:47:33.555Z,101265.38
2019-03-30T13:50:03.330Z,101265.17
2019-03-30T13:52:32.485Z,101255.59
2019-03-30T13:55:01.782Z,101253.20
2019-03-30T13:57:31.106Z,101258.58
2019-03-30T14:00:00.402Z,101256.69
2019-03-30T14:02:29.540Z,101257.55
2019-03-30T14:04:58.785Z,101254.11
2019-03-30T14:07:27.894Z,101253.89
2019-03-30T14:09:57.397Z,101260.22
2019-03-30T14:12:26.601Z,101264.05
2019-03-30T14:14:55.846Z,101264.05
2019-03-30T14:17:25.084Z,101246.39
2019-03-30T14:19:54.290Z,101249.04
2019-03-30T14:22:23.608Z,101242.97
2019-03-30T14:24:52.928Z,101243.02
2019-03-30T14:27:22.538Z,101254.08
2019-03-30T14:29:54.305Z,101247.98
2019-03-30T14:32:22.923Z,101247.03
2019-03-30T14:34:52.133Z,101246.72
2019-03-30T14:37:21.370Z,101246.64
2019-03-30T14:39:50.589Z,101244.10
2019-03-30T14:42:19.708Z,101239.13
2019-03-30T14:44:49.032Z,101232.85
2019-03-30T14:47:18.264Z,101243.72
2019-03-30T14:49:47.600Z,101240.95
2019-03-30T14:52:16.720Z,101241.70
2019-03-30T14:54:52.582Z,101235.38
2019-03-30T14:57:16.947Z,101238.17
2019-03-30T14:59:46.171Z,101241.91
2019-03-30T15:02:15.420Z,101231.77
2019-03-30T15:04:44.638Z,101239.12
2019-03-30T15:07:13.935Z,101235.29
2019-03-30T15:09:43.168Z,101234.91
2019-03-30T15:12:12.485Z,101236.34
2019-03-30T15:14:41.595Z,101233.09
2019-03-30T15:17:10.911Z,101232.81
2019-03-30T15:19:40.073Z,101226.30
2019-03-30T15:22:09.301Z,101230.95
2019-03-30T15:24:38.570Z,101217.16
2019-03-30T15:27:07.768Z,101213.47
2019-03-30T15:29:36.987Z,101225.52
2019-03-30T15:32:06.212Z,101223.23
2019-03-30T15:34:35.424Z,101222.65
2019-03-30T15:37:04.630Z,101227.89
2019-03-30T15:39:33.977Z,101220.22
2019-03-30T15:42:03.316Z,101224.84
2019-03-30T15:44:32.440Z,101226.23
2019-03-30T15:47:01.661Z,101215.84
2019-03-30T15:49:30.874Z,101216.29
2019-03-30T15:52:13.380Z,101223.41
2019-03-30T15:54:31.306Z,101222.70
2019-03-30T15:57:13.477Z,101222.22
2019-03-30T15:59:31.821Z,101221.52
2019-03-30T16:02:01.160Z,101223.97
2019-03-30T16:04:30.494Z,101221.98
2019-03-30T16:06:59.829Z,101224.19
2019-03-30T16:09:29.155Z,101223.47
2019-03-30T16:11:58.444Z,101228.17
2019-03-30T16:14:27.658Z,101225.59
2019-03-30T16:16:56.881Z,101223.11
2019-03-30T16:19:25.999Z,101222.71
2019-03-30T16:21:55.221Z,101219.01
2019-03-30T16:24:24.434Z,101224.33
2019-03-30T16:26:53.830Z,101231.38
2019-03-30T16:29:23.042Z,101222.44
2019-03-30T16:31:52.166Z,101219.27
2019-03-30T16:34:21.374Z,101218.67
2019-03-30T16:36:50.574Z,101218.01
2019-03-30T16:39:19.745Z,101220.89
2019-03-30T16:41:49.024Z,101227.47
2019-03-30T16:44:18.254Z,101225.22
2019-03-30T16:46:47.476Z,101226.91
2019-03-30T16:49:16.568Z,101229.64
2019-03-30T16:51:45.780Z,101222.04
2019-03-30T16:54:14.903Z,101226.97
2019-03-30T16:56:43.996Z,101223.79
2019-03-30T16:59:14.057Z,101222.83
2019-03-30T17:01:43.417Z,101222.27
2019-03-30T17:04:12.646Z,101217.72
2019-03-30T17:06:41.852Z,101225.59
2019-03-30T17:09:11.098Z,101217.42
2019-03-30T17:11:40.411Z,101220.47
2019-03-30T17:14:09.634Z,101224.42
2019-03-30T17:16:38.863Z,101217.14
2019-03-30T17:19:08.082Z,101229.30
2019-03-30T17:21:37.383Z,101223.11
2019-03-30T17:24:06.731Z,101224.77
2019-03-30T17:26:36.214Z,101226.26
2019-03-30T17:29:05.489Z,101223.66
2019-03-30T17:31:34.896Z,101221.23
2019-03-30T17:34:04.400Z,101229.80
2019-03-30T17:36:33.607Z,101230.25
2019-03-30T17:39:06.309Z,101229.38
2019-03-30T17:41:35.437Z,101227.25
2019-03-30T17:44:04.587Z,101229.44
2019-03-30T17:46:33.671Z,101230.00
2019-03-30T17:49:02.883Z,101230.31
2019-03-30T17:51:32.251Z,101231.55
2019-03-30T17:54:01.363Z,101229.66
2019-03-30T17:56:30.475Z,101235.33
2019-03-30T17:58:59.632Z,101240.91
2019-03-30T18:01:28.727Z,101241.59
2019-03-30T18:03:58.067Z,101242.42
2019-03-30T18:06:27.258Z,101244.70
2019-03-30T18:08:56.352Z,101243.44
2019-03-30T18:11:25.570Z,101250.48
2019-03-30T18:13:55.158Z,101252.19
2019-03-30T18:16:24.363Z,101254.23
2019-03-30T18:18:53.478Z,101256.83
2019-03-30T18:21:22.739Z,101254.06
2019-03-30T18:23:52.514Z,101261.38
2019-03-30T18:26:21.893Z,101263.94
2019-03-30T18:28:51.546Z,101265.02
2019-03-30T18:31:20.882Z,101264.23
2019-03-30T18:33:50.419Z,101269.30
2019-03-30T18:36:19.651Z,101268.97
2019-03-30T18:38:49.151Z,101270.39
2019-03-30T18:41:18.430Z,101274.84
2019-03-30T18:43:48.332Z,101277.62
2019-03-30T18:46:17.757Z,101280.47
2019-03-30T18:48:46.961Z,101284.92
2019-03-30T18:51:16.582Z,101282.38
2019-03-30T18:53:45.975Z,101288.80
2019-03-30T18:56:15.284Z,101287.06
2019-03-30T18:58:44.590Z,101285.40
2019-03-30T19:01:13.688Z,101296.27
2019-03-30T19:03:42.763Z,101296.25
2019-03-30T19:06:12.030Z,101295.39
2019-03-30T19:08:41.116Z,101296.78
2019-03-30T19:11:10.360Z,101303.45
2019-03-30T19:13:39.633Z,101299.69
2019-03-30T19:16:08.929Z,101303.22
2019-03-30T19:18:38.023Z,101303.25
2019-03-30T19:21:07.372Z,101302.13
2019-03-30T19:23:36.455Z,101303.58
2019-03-30T19:26:05.776Z,101311.02
2019-03-30T19:28:35.020Z,101305.89
2019-03-30T19:31:04.372Z,101304.83
2019-03-30T19:33:33.624Z,101301.48
2019-03-30T19:36:02.960Z,101305.05
2019-03-30T19:38:32.145Z,101305.61
2019-03-30T19:41:01.361Z,101293.87
2019-03-30T19:43:30.555Z,101297.06
2019-03-30T19:45:59.806Z,101302.81
2019-03-30T19:48:29.124Z,101308.43
2019-03-30T19:50:58.347Z,101308.47
2019-03-30T19:53:27.647Z,101315.93
2019-03-30T19:55:56.849Z,101313.61
2019-03-30T19:58:26.073Z,101322.88
2019-03-30T20:00:55.381Z,101322.23
2019-03-30T20:03:24.575Z,101324.52
2019-03-30T20:05:53.928Z,101325.58
2019-03-30T20:08:23.263Z,101330.50
2019-03-30T20:10:52.568Z,101331.25
2019-03-30T20:13:21.798Z,101328.89
2019-03-30T20:15:51.028Z,101323.02
2019-03-30T20:18:20.643Z,101332.05
2019-03-30T20:20:49.776Z,101336.70
2019-03-30T20:23:18.871Z,101326.19
2019-03-30T20:25:48.181Z,101333.80
2019-03-30T20:28:17.482Z,101329.02
2019-03-30T20:30:46.839Z,101324.59
2019-03-30T20:33:16.245Z,101325.06
2019-03-30T20:35:45.471Z,101335.95
2019-03-30T20:38:14.812Z,101330.79
2019-03-30T20:40:44.099Z,101331.81
2019-03-30T20:43:13.456Z,101332.98
2019-03-30T20:45:42.641Z,101321.43
2019-03-30T20:48:11.828Z,101331.41
2019-03-30T20:50:40.916Z,101329.48
2019-03-30T20:53:10.280Z,101333.72
2019-03-30T20:55:39.375Z,101331.72
2019-03-30T20:58:08.675Z,101329.02
2019-03-30T21:00:37.894Z,101330.45
2019-03-30T21:03:07.063Z,101333.09
2019-03-30T21:05:36.466Z,101332.65
2019-03-30T21:08:05.664Z,101335.11
2019-03-30T21:10:35.279Z,101336.14
2019-03-30T21:13:04.611Z,101329.41
2019-03-30T21:15:33.831Z,101328.80
2019-03-30T21:18:03.662Z,101326.00
2019-03-30T21:20:33.145Z,101334.09
2019-03-30T21:23:02.415Z,101335.16
2019-03-30T21:25:31.595Z,101334.89
2019-03-30T21:28:00.805Z,101334.38
2019-03-30T21:30:30.084Z,101336.70
2019-03-30T21:32:59.302Z,101336.98
2019-03-30T21:35:28.493Z,101335.91
2019-03-30T21:37:58.728Z,101337.83
2019-03-30T21:40:28.266Z,101339.22
2019-03-30T21:42:57.382Z,101342.02
2019-03-30T21:45:26.548Z,101340.94
2019-03-30T21:47:55.733Z,101335.84
2019-03-30T21:50:25.131Z,101334.37
2019-03-30T21:52:54.224Z,101333.21
2019-03-30T21:55:23.297Z,101333.80
2019-03-30T21:57:52.513Z,101331.25
2019-03-30T22:00:47.038Z,101329.53
2019-03-30T22:03:15.818Z,101328.89
2019-03-30T22:05:45.363Z,101334.66
2019-03-30T22:08:17.223Z,101330.98
2019-03-30T22:10:45.732Z,101336.28
2019-03-30T22:13:15.191Z,101333.77
2019-03-30T22:15:44.371Z,101327.63
2019-03-30T22:18:13.632Z,101332.94
2019-03-30T22:20:42.870Z,101331.77
2019-03-30T22:23:12.230Z,101335.44
2019-03-30T22:25:41.824Z,101334.56
2019-03-30T22:28:11.062Z,101339.73
2019-03-30T22:30:40.455Z,101342.94
2019-03-30T22:33:09.714Z,101343.49
2019-03-30T22:35:38.814Z,101340.94
2019-03-30T22:38:07.953Z,101341.73
2019-03-30T22:40:37.154Z,101336.10
2019-03-30T22:43:06.338Z,101330.98
2019-03-30T22:45:35.588Z,101334.33
2019-03-30T22:48:05.041Z,101331.67
2019-03-30T22:50:34.681Z,101332.09
2019-03-30T22:53:04.058Z,101323.62
2019-03-30T22:55:33.257Z,101326.67
2019-03-30T22:58:02.573Z,101334.11
2019-03-30T23:00:55.039Z,101329.52
2019-03-30T23:03:24.272Z,101334.22
2019-03-30T23:05:53.551Z,101332.48
2019-03-30T23:08:22.674Z,101343.69
2019-03-30T23:10:52.013Z,101340.24
2019-03-30T23:13:21.114Z,101344.32
2019-03-30T23:15:50.463Z,101343.30
2019-03-30T23:18:19.681Z,101347.30
2019-03-30T23:20:48.866Z,101345.97
2019-03-30T23:23:17.967Z,101342.78
2019-03-30T23:25:47.232Z,101347.02
2019-03-30T23:28:16.480Z,101348.53
2019-03-30T23:30:54.131Z,101349.23
2019-03-30T23:33:17.158Z,101351.97
2019-03-30T23:35:46.397Z,101345.13
2019-03-30T23:38:15.677Z,101348.21
2019-03-30T23:40:45.022Z,101348.33
2019-03-30T23:43:14.164Z,101347.03
2019-03-30T23:45:43.339Z,101346.38
2019-03-30T23:48:12.471Z,101338.86
2019-03-30T23:50:41.783Z,101341.91
2019-03-30T23:53:10.878Z,101340.25
2019-03-30T23:55:40.276Z,101340.44
2019-03-30T23:58:09.712Z,101339.88
